Time;durP1;ratioP1;P1;durP2;ratioP2;P2;SDS_P1;SDS_P2;PMS_P1;PMS_P2;Temp;Humidity;BMP_temperature;BMP_pressure;BME280_temperature;BME280_humidity;BME280_pressure;Samples;Min_cycle;Max_cycle;Signal;HPM_P1;HPM_P2
2021/12/20 00:00:41;;;;;;;6.15;1.85;;;1.60;99.90;;;1.51;72.99;101682.66;4900670;29;20487;-66
2021/12/20 00:03:09;;;;;;;3.13;1.50;;;1.60;99.90;;;1.46;73.17;101681.31;4901229;29;20202;-69
2021/12/20 00:05:38;;;;;;;1.73;1.25;;;1.60;99.90;;;1.43;73.51;101679.78;4916255;29;20419;-69
2021/12/20 00:08:08;;;;;;;3.60;1.55;;;1.60;99.90;;;1.42;72.88;101666.56;4901299;29;20213;-68
2021/12/20 00:10:40;;;;;;;6.07;2.25;;;1.60;99.90;;;1.38;73.92;101662.44;4899808;29;20214;-67
2021/12/20 00:13:09;;;;;;;4.45;2.15;;;1.50;99.90;;;1.41;73.34;101670.19;4900754;29;20672;-67
2021/12/20 00:15:38;;;;;;;4.88;1.60;;;1.60;99.90;;;1.38;73.22;101667.78;4899917;29;20174;-68
2021/12/20 00:18:06;;;;;;;5.85;2.95;;;1.50;99.90;;;1.38;73.66;101673.97;4900428;29;20213;-65
2021/12/20 00:20:35;;;;;;;4.80;2.10;;;1.50;99.90;;;1.39;73.19;101670.31;4900416;29;20210;-69
2021/12/20 00:23:04;;;;;;;6.18;2.40;;;1.50;99.90;;;1.28;74.27;101681.00;4901341;29;20202;-67
2021/12/20 00:25:33;;;;;;;4.63;2.25;;;1.40;99.90;;;1.27;74.04;101676.63;4900464;29;20217;-68
2021/12/20 00:28:03;;;;;;;4.00;1.65;;;1.40;99.90;;;1.24;74.19;101682.22;4901004;29;20554;-69
2021/12/20 00:30:32;;;;;;;3.67;1.30;;;1.40;99.90;;;1.18;74.14;101678.22;4899595;29;20674;-70
2021/12/20 00:33:01;;;;;;;3.05;1.73;;;1.30;99.90;;;1.21;74.20;101675.31;4913862;29;20651;-67
2021/12/20 00:35:30;;;;;;;3.85;1.75;;;1.40;99.90;;;1.20;73.86;101681.63;4899808;29;20190;-66
2021/12/20 00:40:44;;;;;;;3.25;1.58;;;1.40;99.90;;;1.31;73.42;101688.75;4898642;29;20218;-68
2021/12/20 00:43:14;;;;;;;4.88;1.50;;;1.40;99.90;;;1.31;73.39;101688.75;4900521;29;20289;-67
2021/12/20 00:45:43;;;;;;;4.18;1.42;;;1.40;99.90;;;1.23;73.79;101692.03;4900528;29;20186;-68
2021/12/20 00:48:12;;;;;;;6.50;1.58;;;1.40;99.90;;;1.21;74.30;101693.97;4900337;29;20193;-69
2021/12/20 00:50:44;;;;;;;1.85;1.05;;;1.40;99.90;;;1.23;74.07;101696.53;4915016;23;20242;-62
2021/12/20 00:53:14;;;;;;;2.67;1.35;;;1.30;99.90;;;1.24;73.59;101699.06;4880141;29;20551;-62
2021/12/20 00:55:43;;;;;;;3.47;1.90;;;1.30;99.90;;;1.22;73.63;101703.66;4880008;29;20191;-62
2021/12/20 00:58:12;;;;;;;3.95;1.63;;;1.30;99.90;;;1.13;73.98;101706.22;4879587;29;20218;-62
2021/12/20 01:00:46;;;;;;;9.93;1.67;;;1.30;99.90;;;1.12;74.13;101700.03;4879751;29;20285;-59
2021/12/20 01:03:16;;;;;;;2.25;1.48;;;1.30;99.90;;;1.09;74.12;101699.44;4879857;29;20189;-63
2021/12/20 01:05:45;;;;;;;6.53;2.03;;;1.30;99.90;;;1.03;74.58;101705.25;4878500;29;20202;-62
2021/12/20 01:08:15;;;;;;;6.10;1.50;;;1.20;99.90;;;1.01;74.28;101708.06;4880957;29;20226;-60
2021/12/20 01:10:50;;;;;;;2.83;1.40;;;1.20;99.90;;;0.99;74.38;101707.31;4880742;29;20215;-62
2021/12/20 01:13:22;;;;;;;7.28;1.65;;;1.10;99.90;;;0.94;74.84;101705.97;4880976;29;20242;-63
2021/12/20 01:15:54;;;;;;;3.40;1.58;;;1.10;99.90;;;0.97;74.71;101711.09;4880871;29;20175;-63
2021/12/20 01:18:23;;;;;;;5.15;1.50;;;1.10;99.90;;;0.99;74.74;101717.97;4880168;29;20302;-63
2021/12/20 01:20:52;;;;;;;1.60;1.30;;;1.10;99.90;;;0.91;74.87;101717.75;4879655;29;20214;-62
2021/12/20 01:23:21;;;;;;;3.08;1.20;;;1.10;99.90;;;0.91;74.74;101727.53;4879732;29;20271;-62
2021/12/20 01:25:50;;;;;;;5.30;2.50;;;1.10;99.90;;;0.94;74.76;101728.16;4879425;29;20195;-62
2021/12/20 01:28:18;;;;;;;3.53;1.35;;;1.00;99.90;;;0.88;74.57;101723.28;4879440;29;20243;-61
2021/12/20 01:30:47;;;;;;;5.43;1.88;;;1.00;99.90;;;0.94;75.07;101722.81;4879246;29;20210;-62
2021/12/20 01:33:17;;;;;;;5.53;2.40;;;1.00;99.90;;;0.84;74.98;101727.16;4879357;29;20210;-63
2021/12/20 01:35:45;;;;;;;4.85;1.65;;;1.00;99.90;;;0.81;75.00;101722.09;4879742;29;20636;-62
2021/12/20 01:38:14;;;;;;;6.85;1.73;;;1.00;99.90;;;0.74;75.55;101721.69;4879491;29;20562;-63
2021/12/20 01:40:42;;;;;;;3.65;1.40;;;0.90;99.90;;;0.75;75.50;101711.91;4879106;29;20223;-62
2021/12/20 01:43:12;;;;;;;3.60;1.60;;;0.90;99.90;;;0.77;75.29;101725.97;4879202;29;20698;-62
2021/12/20 01:45:41;;;;;;;4.70;1.90;;;0.90;99.90;;;0.69;75.78;101744.34;4879319;29;20190;-63
2021/12/20 01:48:12;;;;;;;3.88;1.63;;;0.90;99.90;;;0.75;75.36;101747.38;4879354;29;20572;-63
2021/12/20 01:51:15;;;;;;;3.65;1.45;;;0.90;99.90;;;0.74;75.69;101742.16;4878846;29;20182;-62
2021/12/20 01:53:42;;;;;;;3.13;1.55;;;0.90;99.90;;;0.77;75.37;101734.81;4879001;29;20247;-60
2021/12/20 01:57:38;;;;;;;3.60;1.88;;;0.90;99.90;;;0.77;75.42;101734.81;4878953;29;20231;-61
2021/12/20 02:00:12;;;;;;;4.18;1.50;;;0.90;99.90;;;0.80;75.42;101731.88;4878908;29;20289;-63
2021/12/20 02:02:52;;;;;;;6.60;1.67;;;0.90;99.90;;;0.73;75.59;101730.66;4879070;29;20634;-62
2021/12/20 02:05:25;;;;;;;2.90;1.33;;;0.90;99.90;;;0.74;75.33;101736.84;4878995;29;20175;-63
2021/12/20 02:08:00;;;;;;;2.55;1.33;;;0.90;99.90;;;0.68;75.28;101730.16;4878815;29;20183;-60
2021/12/20 02:10:33;;;;;;;2.00;1.35;;;0.80;99.90;;;0.70;75.43;101724.72;4878838;29;20261;-62
2021/12/20 02:13:02;;;;;;;2.45;1.38;;;0.80;99.90;;;0.75;75.45;101722.56;4877912;29;20218;-60
2021/12/20 02:15:30;;;;;;;6.35;1.65;;;0.90;99.90;;;0.73;75.42;101737.78;4879223;29;20198;-62
2021/12/20 02:17:59;;;;;;;5.95;2.13;;;0.90;99.90;;;0.63;75.85;101735.00;4879028;29;20202;-63
2021/12/20 02:20:33;;;;;;;3.20;2.85;;;0.80;99.90;;;0.57;76.38;101723.97;4878756;29;20211;-62
2021/12/20 02:23:02;;;;;;;3.72;1.63;;;0.80;99.90;;;0.56;76.13;101727.59;4878807;29;20187;-63
2021/12/20 02:25:32;;;;;;;2.97;1.63;;;0.70;99.90;;;0.52;76.42;101731.47;4878545;29;20195;-63
2021/12/20 02:28:13;;;;;;;3.33;1.30;;;0.80;99.90;;;0.60;76.18;101734.38;4879188;29;20656;-63
2021/12/20 02:30:53;;;;;;;4.07;1.83;;;0.70;99.90;;;0.59;76.21;101719.38;4878881;29;20242;-63
2021/12/20 02:39:01;;;;;;;7.22;1.40;;;0.70;99.90;;;0.51;76.29;101719.97;4878694;29;20190;-62
2021/12/20 02:41:33;;;;;;;4.10;1.58;;;0.70;99.90;;;0.51;76.45;101724.44;4878661;29;20211;-63
2021/12/20 02:44:05;;;;;;;2.95;1.33;;;0.70;99.90;;;0.59;76.35;101716.69;4878593;29;20190;-62
2021/12/20 02:46:50;;;;;;;3.20;1.73;;;0.70;99.90;;;0.49;76.30;101719.22;4878700;29;20195;-63
2021/12/20 02:49:22;;;;;;;4.55;2.05;;;0.70;99.90;;;0.54;76.50;101726.84;4878613;29;20195;-62
2021/12/20 02:51:59;;;;;;;5.97;1.63;;;0.70;99.90;;;0.45;76.38;101733.75;4878586;29;20271;-63
2021/12/20 02:54:27;;;;;;;2.72;1.75;;;0.60;99.90;;;0.51;76.62;101727.09;4878981;29;20186;-61
2021/12/20 02:56:56;;;;;;;6.40;2.10;;;0.60;99.90;;;0.48;76.59;101732.69;4882412;29;20179;-62
2021/12/20 02:59:25;;;;;;;7.18;2.38;;;0.60;99.90;;;0.50;76.10;101738.72;4882680;29;20286;-61
2021/12/20 03:01:59;;;;;;;4.45;2.47;;;0.60;99.90;;;0.40;76.67;101728.75;4882427;29;20578;-61
2021/12/20 03:04:28;;;;;;;5.10;1.58;;;0.60;99.90;;;0.41;76.48;101738.47;4882436;29;20202;-62
2021/12/20 03:07:02;;;;;;;3.22;1.40;;;0.60;99.90;;;0.40;77.09;101741.22;4882609;29;20667;-61
2021/12/20 03:09:45;;;;;;;3.60;1.45;;;0.60;99.90;;;0.37;77.17;101742.31;4882653;29;20707;-60
2021/12/20 03:12:14;;;;;;;7.55;1.83;;;0.50;99.90;;;0.43;77.22;101739.19;4882381;29;20270;-62
2021/12/20 03:14:46;;;;;;;7.07;1.40;;;0.50;99.90;;;0.43;76.97;101744.53;4881697;29;20523;-61
2021/12/20 03:17:15;;;;;;;2.90;1.50;;;0.60;99.90;;;0.37;77.03;101739.66;4881497;29;20183;-60
2021/12/20 03:19:43;;;;;;;5.13;1.73;;;0.50;99.90;;;0.36;77.08;101740.63;4881517;29;20221;-61
2021/12/20 03:22:13;;;;;;;3.97;1.52;;;0.50;99.90;;;0.34;77.23;101739.88;4881746;29;20303;-63
2021/12/20 03:24:41;;;;;;;3.50;1.60;;;0.50;99.90;;;0.33;77.29;101748.84;4881837;29;20259;-62
2021/12/20 03:27:10;;;;;;;29.25;2.58;;;0.50;99.90;;;0.34;77.34;101741.69;4881774;29;20198;-63
2021/12/20 03:29:39;;;;;;;3.85;1.20;;;0.50;99.90;;;0.33;77.26;101746.19;4881501;29;20611;-63
2021/12/20 03:32:08;;;;;;;6.22;1.88;;;0.50;99.90;;;0.31;77.24;101742.78;4881797;29;20238;-62
2021/12/20 03:34:37;;;;;;;14.02;2.60;;;0.50;99.90;;;0.33;77.30;101738.19;4881729;29;20179;-62
2021/12/20 03:37:05;;;;;;;3.03;2.00;;;0.50;99.90;;;0.35;77.06;101736.25;4882608;29;20202;-63
2021/12/20 03:39:35;;;;;;;3.92;1.48;;;0.50;99.90;;;0.31;77.67;101748.09;4883082;29;20789;-62
2021/12/20 03:42:05;;;;;;;20.90;2.92;;;0.50;99.90;;;0.34;77.07;101742.53;4882601;29;20231;-62
2021/12/20 03:44:37;;;;;;;8.07;1.50;;;0.50;99.90;;;0.29;77.60;101754.53;4881782;29;20648;-61
2021/12/20 03:47:06;;;;;;;2.67;1.15;;;0.50;99.90;;;0.28;77.89;101750.16;4881450;29;20611;-63
2021/12/20 03:49:34;;;;;;;3.05;1.27;;;0.40;99.90;;;0.29;77.77;101735.88;4881684;29;20195;-63
2021/12/20 03:52:04;;;;;;;6.55;1.60;;;0.40;99.90;;;0.19;78.43;101740.19;4882807;29;20257;-62
2021/12/20 03:54:32;;;;;;;4.55;1.45;;;0.40;99.90;;;0.16;78.28;101741.25;4882969;29;20193;-62
2021/12/20 03:57:03;;;;;;;5.18;2.22;;;0.40;99.90;;;0.18;78.44;101739.34;4882375;29;20251;-62
2021/12/20 03:59:32;;;;;;;8.38;2.67;;;0.40;99.90;;;0.05;78.54;101746.53;4883035;29;20176;-63
2021/12/20 04:02:02;;;;;;;6.40;1.58;;;0.30;99.90;;;0.04;79.13;101747.50;4882603;29;20732;-63
2021/12/20 04:04:31;;;;;;;7.95;1.73;;;0.20;99.90;;;0.05;78.87;101753.69;4882524;29;20182;-62
2021/12/20 04:06:59;;;;;;;5.80;1.65;;;0.20;99.90;;;0.02;79.18;101760.06;4880371;29;20258;-62
2021/12/20 04:09:28;;;;;;;4.40;1.77;;;0.20;99.90;;;0.04;79.42;101758.16;4881121;29;20287;-62
2021/12/20 04:11:56;;;;;;;4.68;1.65;;;0.20;99.90;;;0.08;79.45;101756.13;4881186;29;20219;-62
2021/12/20 04:14:26;;;;;;;4.70;1.65;;;0.20;99.90;;;-0.01;79.83;101757.66;4881950;29;20179;-62
2021/12/20 04:16:55;;;;;;;4.55;2.05;;;0.20;99.90;;;-0.06;79.96;101751.81;4882343;29;20581;-62
2021/12/20 04:19:23;;;;;;;3.72;1.55;;;0.10;99.90;;;-0.08;79.75;101757.25;4881470;29;20735;-63
2021/12/20 04:21:52;;;;;;;7.53;1.60;;;0.10;99.90;;;-0.11;80.18;101756.63;4881741;29;20620;-63
2021/12/20 04:24:20;;;;;;;6.07;1.40;;;0.10;99.90;;;-0.12;80.48;101758.44;4881260;29;20183;-63
2021/12/20 04:26:49;;;;;;;5.28;1.88;;;0.10;99.90;;;-0.10;80.13;101761.81;4880401;29;20699;-63
2021/12/20 04:29:18;;;;;;;4.28;1.63;;;0.10;99.90;;;-0.25;80.41;101762.09;4880556;29;20187;-62
2021/12/20 04:31:49;;;;;;;3.60;1.35;;;0.00;99.90;;;-0.17;80.81;101765.91;4880514;29;20218;-63
2021/12/20 04:34:17;;;;;;;8.05;1.70;;;0.00;99.90;;;-0.12;80.46;101773.53;4880542;29;20186;-62
2021/12/20 04:36:46;;;;;;;5.85;1.70;;;0.00;99.90;;;-0.22;80.66;101760.06;4880391;29;20195;-63
2021/12/20 04:39:19;;;;;;;10.45;2.28;;;0.00;99.90;;;-0.07;80.58;101774.06;4880330;29;20269;-62
2021/12/20 04:41:47;;;;;;;2.15;1.40;;;0.00;99.90;;;-0.14;80.69;101775.44;4879985;29;20233;-63
2021/12/20 04:44:16;;;;;;;12.13;2.08;;;0.00;99.90;;;-0.15;80.97;101771.13;4880375;29;20208;-64
2021/12/20 04:46:44;;;;;;;9.45;2.25;;;0.00;99.90;;;-0.13;80.23;101763.84;4878780;29;20556;-63
2021/12/20 04:49:14;;;;;;;5.70;2.03;;;0.00;99.90;;;-0.15;80.77;101758.66;4894387;29;20290;-63
2021/12/20 04:51:43;;;;;;;10.13;2.67;;;0.00;99.90;;;-0.18;80.93;101763.34;4880167;29;20289;-62
2021/12/20 04:54:11;;;;;;;6.47;1.58;;;0.00;99.90;;;-0.15;80.79;101768.47;4880411;29;20615;-62
2021/12/20 04:56:40;;;;;;;8.98;4.15;;;0.00;99.90;;;-0.19;80.96;101766.97;4880012;29;20648;-63
2021/12/20 04:59:08;;;;;;;10.02;2.83;;;0.00;99.90;;;-0.08;81.17;101764.38;4879850;29;20198;-63
2021/12/20 05:01:36;;;;;;;11.18;3.03;;;0.10;99.90;;;-0.22;81.32;101772.50;4879824;29;20223;-63
2021/12/20 05:04:05;;;;;;;5.97;2.03;;;0.00;99.90;;;-0.17;81.27;101773.03;4879744;29;20201;-64
2021/12/20 05:06:35;;;;;;;9.93;1.80;;;0.00;99.90;;;-0.16;81.33;101766.75;4880117;29;20247;-62
2021/12/20 05:09:05;;;;;;;7.88;2.65;;;0.00;99.90;;;-0.21;81.66;101771.56;4880208;29;20187;-62
2021/12/20 05:11:35;;;;;;;4.68;1.90;;;0.00;99.90;;;-0.16;81.50;101772.94;4879598;29;20206;-62
2021/12/20 05:14:04;;;;;;;4.85;2.40;;;0.00;99.90;;;-0.18;81.73;101773.97;4879608;29;20561;-62
2021/12/20 05:16:32;;;;;;;9.55;2.45;;;0.00;99.90;;;-0.24;81.79;101766.47;4879516;29;20198;-63
2021/12/20 05:19:00;;;;;;;6.47;2.10;;;0.00;99.90;;;-0.25;81.31;101772.75;4879406;29;20197;-63
2021/12/20 05:21:30;;;;;;;5.38;1.65;;;0.00;99.90;;;-0.23;81.46;101770.81;4879358;29;20225;-63
2021/12/20 05:23:59;;;;;;;2.78;1.65;;;0.00;99.90;;;-0.15;81.18;101776.44;4879542;29;20187;-63
2021/12/20 05:26:28;;;;;;;14.02;2.45;;;0.00;99.90;;;-0.23;81.39;101781.44;4879252;29;20187;-63
2021/12/20 05:28:56;;;;;;;7.97;3.10;;;0.00;99.90;;;-0.11;81.72;101785.88;4879409;29;20711;-62
2021/12/20 05:31:25;;;;;;;3.25;2.10;;;0.00;99.90;;;-0.19;81.63;101793.56;4879434;29;20225;-62
2021/12/20 05:33:54;;;;;;;6.22;3.03;;;0.00;99.90;;;-0.16;81.60;101791.53;4879342;29;20189;-63
2021/12/20 05:36:22;;;;;;;5.05;3.30;;;0.00;99.90;;;-0.33;81.69;101791.03;4879334;29;20194;-62
2021/12/20 05:38:51;;;;;;;7.60;3.28;;;0.00;99.90;;;-0.19;81.24;101797.06;4879019;29;20573;-60
2021/12/20 05:41:20;;;;;;;11.18;3.00;;;-0.10;99.90;;;-0.21;81.24;101792.84;4878951;29;20580;-62
2021/12/20 05:43:49;;;;;;;9.38;2.95;;;-0.10;99.90;;;-0.19;81.37;101796.22;4879177;29;20202;-58
2021/12/20 05:46:18;;;;;;;6.28;3.35;;;0.00;99.90;;;-0.13;81.30;101803.75;4879131;29;20197;-62
2021/12/20 05:48:47;;;;;;;9.32;3.45;;;0.00;99.90;;;-0.13;81.08;101793.97;4879319;29;20179;-63
2021/12/20 05:51:15;;;;;;;10.07;3.75;;;0.00;99.90;;;-0.32;81.67;101806.06;4879012;29;20226;-63
2021/12/20 05:53:44;;;;;;;6.22;2.45;;;-0.10;99.90;;;-0.22;81.78;101807.09;4879185;29;20267;-62
2021/12/20 05:56:12;;;;;;;3.15;1.80;;;-0.10;99.90;;;-0.22;81.16;101804.44;4879119;29;20664;-63
2021/12/20 05:58:42;;;;;;;6.28;2.60;;;0.00;99.90;;;-0.16;81.40;101809.31;4879081;29;20179;-64
2021/12/20 06:01:10;;;;;;;11.38;2.80;;;0.00;99.90;;;-0.17;81.14;101823.56;4879221;29;20707;-62
2021/12/20 06:03:39;;;;;;;13.02;2.47;;;0.00;99.90;;;-0.20;81.89;101814.03;4879398;29;20191;-62
2021/12/20 06:06:08;;;;;;;5.40;2.53;;;0.00;99.90;;;-0.16;81.52;101822.63;4877651;29;20202;-62
2021/12/20 06:08:41;;;;;;;5.35;2.10;;;0.00;99.90;;;-0.14;81.16;101818.88;4878992;29;20183;-64
2021/12/20 06:11:09;;;;;;;8.77;2.78;;;0.00;99.90;;;-0.08;81.55;101818.44;4878891;29;20277;-63
2021/12/20 06:13:37;;;;;;;5.00;2.15;;;0.00;99.90;;;-0.18;81.38;101821.88;4878798;29;20262;-62
2021/12/20 06:16:07;;;;;;;10.55;2.45;;;0.00;99.90;;;-0.20;81.43;101824.66;4878894;29;20258;-63
2021/12/20 06:18:36;;;;;;;6.10;2.72;;;0.00;99.90;;;-0.09;81.23;101821.19;4879012;29;20224;-63
2021/12/20 06:21:04;;;;;;;6.68;2.72;;;0.10;99.90;;;-0.30;81.29;101818.28;4878731;29;20249;-61
2021/12/20 06:23:33;;;;;;;13.20;2.80;;;0.00;99.90;;;-0.07;81.45;101819.28;4878984;29;20266;-61
2021/12/20 06:26:01;;;;;;;8.52;2.15;;;0.00;99.90;;;-0.12;81.50;101813.44;4878982;29;20286;-61
2021/12/20 06:28:30;;;;;;;9.80;3.10;;;0.00;99.90;;;-0.13;81.68;101814.41;4878751;29;20716;-63
2021/12/20 06:30:58;;;;;;;6.45;2.00;;;0.00;99.90;;;-0.31;81.33;101821.06;4880586;29;20221;-62
2021/12/20 06:33:28;;;;;;;8.52;2.70;;;-0.10;99.90;;;-0.32;81.72;101830.84;4883225;29;20568;-62
2021/12/20 06:35:57;;;;;;;15.75;3.25;;;-0.10;99.90;;;-0.44;81.76;101831.72;4892926;29;20250;-62
2021/12/20 06:38:26;;;;;;;6.72;2.40;;;-0.10;99.90;;;-0.23;82.28;101834.66;4890533;29;20237;-60
2021/12/20 06:40:55;;;;;;;4.13;1.80;;;-0.10;99.90;;;-0.09;81.11;101815.88;4882426;29;20305;-64
2021/12/20 06:43:24;;;;;;;10.82;3.60;;;0.00;99.90;;;-0.15;81.65;101821.66;4882538;29;20258;-63
2021/12/20 06:45:53;;;;;;;10.77;2.80;;;0.00;99.90;;;-0.28;81.39;101828.81;4882133;29;20206;-62
2021/12/20 06:48:28;;;;;;;10.57;2.75;;;-0.10;99.90;;;-0.32;82.15;101835.31;4882165;29;20182;-62
2021/12/20 06:50:57;;;;;;;4.25;2.67;;;-0.10;99.90;;;-0.12;81.40;101827.59;4882196;29;20317;-63
2021/12/20 06:53:25;;;;;;;8.70;2.40;;;-0.10;99.90;;;-0.23;81.38;101829.31;4919820;23;20243;-68
2021/12/20 06:55:54;;;;;;;15.25;3.00;;;-0.10;99.90;;;-0.37;81.35;101842.75;4881657;29;20195;-68
2021/12/20 06:58:23;;;;;;;7.78;2.35;;;-0.10;99.90;;;-0.37;81.56;101848.09;4883585;29;20554;-69
2021/12/20 07:00:53;;;;;;;6.47;2.65;;;-0.10;99.90;;;-0.13;81.05;101854.31;4894621;29;20223;-66
2021/12/20 07:03:23;;;;;;;2.88;2.00;;;-0.10;99.90;;;-0.11;81.45;101849.75;4914033;29;20218;-68
2021/12/20 07:05:53;;;;;;;7.38;2.70;;;0.00;99.90;;;-0.13;81.70;101835.69;4885753;29;20199;-69
2021/12/20 07:08:22;;;;;;;4.95;1.95;;;0.00;99.90;;;-0.24;81.44;101848.94;4899505;29;20187;-69
2021/12/20 07:10:51;;;;;;;2.42;2.08;;;0.00;99.90;;;-0.28;81.90;101856.25;4882592;29;20525;-67
2021/12/20 07:13:21;;;;;;;6.63;2.33;;;-0.10;99.90;;;-0.07;81.10;101849.41;4883102;29;20214;-69
2021/12/20 07:15:51;;;;;;;5.70;2.65;;;0.00;99.90;;;-0.12;81.53;101867.53;4882074;29;20215;-67
2021/12/20 07:18:19;;;;;;;8.00;2.28;;;0.00;99.90;;;-0.07;81.48;101862.72;4883047;29;20202;-69
2021/12/20 07:20:48;;;;;;;9.88;3.17;;;0.10;99.90;;;-0.16;81.92;101873.16;4882875;29;20207;-67
2021/12/20 07:23:18;;;;;;;5.85;2.70;;;0.00;99.90;;;0.05;80.71;101863.63;4883874;29;20274;-73
2021/12/20 07:25:47;;;;;;;8.60;7.35;;;0.20;99.90;;;-0.16;81.32;101878.50;4881204;29;20195;-71
2021/12/20 07:28:16;;;;;;;14.30;3.30;;;0.00;99.90;;;0.07;80.97;101871.50;4889173;29;20194;-72
2021/12/20 07:30:46;;;;;;;7.25;2.42;;;0.10;99.90;;;0.07;80.70;101874.16;4902767;29;20226;-72
2021/12/20 07:33:20;;;;;;;53.78;45.65;;;0.20;99.90;;;-0.21;81.25;101875.31;4905199;29;20264;-70
2021/12/20 07:35:49;;;;;;;10.48;3.55;;;0.10;99.90;;;-0.10;81.35;101884.22;4888969;29;20461;-68
2021/12/20 07:38:20;;;;;;;12.25;3.50;;;0.10;99.90;;;0.07;80.81;101883.00;4889364;29;20285;-71
2021/12/20 07:40:51;;;;;;;5.85;2.55;;;0.20;99.90;;;0.15;80.98;101888.63;4888597;29;20269;-68
2021/12/20 07:43:24;;;;;;;29.67;26.25;;;0.20;99.90;;;0.03;81.03;101893.97;4892853;29;20227;-69
2021/12/20 07:45:52;;;;;;;18.95;5.00;;;0.20;99.90;;;0.20;80.29;101891.81;4892341;29;20254;-68
2021/12/20 07:48:22;;;;;;;7.20;2.72;;;0.30;99.90;;;0.17;80.07;101894.69;4896686;29;20273;-70
2021/12/20 07:50:51;;;;;;;9.02;3.20;;;0.30;99.90;;;0.07;80.58;101896.31;4891734;29;20199;-68
2021/12/20 07:53:22;;;;;;;17.92;4.70;;;0.30;99.90;;;0.22;80.57;101897.03;4886628;29;20298;-69
2021/12/20 07:55:50;;;;;;;8.63;3.47;;;0.30;99.90;;;-0.03;80.81;101911.25;4884014;29;20195;-70
2021/12/20 07:58:20;;;;;;;8.50;4.03;;;0.20;99.90;;;0.18;80.77;101908.84;4886956;29;20226;-69
2021/12/20 08:00:49;;;;;;;4.80;2.60;;;0.20;99.90;;;0.33;80.26;101908.59;4902415;29;20183;-67
2021/12/20 08:03:18;;;;;;;9.68;3.60;;;0.40;99.90;;;0.12;80.85;101912.81;4901820;29;20718;-67
2021/12/20 08:05:47;;;;;;;4.68;2.90;;;0.30;99.90;;;0.34;80.55;101912.09;4884708;29;20209;-69
2021/12/20 08:08:16;;;;;;;4.38;2.90;;;0.40;99.90;;;0.25;80.30;101916.28;4883406;29;20191;-69
2021/12/20 08:10:46;;;;;;;9.77;3.83;;;0.40;99.90;;;0.26;80.38;101917.97;4882122;29;20203;-70
2021/12/20 08:13:16;;;;;;;13.18;3.60;;;0.40;99.90;;;0.34;80.26;101915.59;4885652;29;20234;-68
2021/12/20 08:15:44;;;;;;;10.60;3.03;;;0.40;99.90;;;0.54;79.97;101922.13;4879868;29;20187;-68
2021/12/20 08:18:14;;;;;;;7.00;3.33;;;0.50;99.90;;;0.67;78.62;101916.78;4886791;29;20304;-68
2021/12/20 08:20:42;;;;;;;5.65;2.83;;;0.70;99.90;;;0.59;78.76;101916.47;4887234;29;20191;-68
2021/12/20 08:23:10;;;;;;;6.65;2.40;;;0.60;99.90;;;0.68;79.30;101913.13;4883482;29;20211;-68
2021/12/20 08:25:40;;;;;;;9.15;4.32;;;0.70;99.90;;;0.81;78.67;101920.13;4881335;29;20195;-68
2021/12/20 08:28:15;;;;;;;7.88;4.15;;;0.80;99.90;;;0.81;78.41;101930.78;4883466;29;20195;-70
2021/12/20 08:30:44;;;;;;;10.90;4.07;;;0.90;99.90;;;0.83;78.60;101926.16;4890745;29;20201;-68
2021/12/20 08:33:13;;;;;;;7.22;2.80;;;0.90;99.90;;;0.74;78.53;101929.53;4909674;29;20218;-70
2021/12/20 08:35:43;;;;;;;14.18;4.22;;;0.90;99.90;;;0.82;79.17;101931.63;4892209;29;20198;-69
2021/12/20 08:38:22;;;;;;;11.85;2.60;;;0.90;99.90;;;0.98;78.63;101942.81;4890321;29;20179;-69
2021/12/20 08:41:02;;;;;;;7.35;2.72;;;1.00;99.90;;;0.80;78.82;101944.22;4908299;29;20651;-67
2021/12/20 08:43:36;;;;;;;7.38;3.03;;;1.00;99.90;;;0.95;78.38;101943.06;4908943;29;20245;-69
2021/12/20 08:46:05;;;;;;;5.55;2.83;;;1.00;99.90;;;1.01;78.33;101953.28;4909708;29;20205;-69
2021/12/20 08:48:34;;;;;;;7.03;3.47;;;1.10;99.90;;;0.99;78.74;101955.19;4904221;29;20211;-68
2021/12/20 08:51:04;;;;;;;3.85;2.78;;;1.10;99.90;;;0.88;78.66;101948.00;4904767;29;20651;-67
2021/12/20 08:53:35;;;;;;;8.77;3.10;;;1.00;99.90;;;1.10;78.42;101946.41;4900931;29;20214;-69
2021/12/20 08:56:05;;;;;;;5.30;2.80;;;1.10;99.90;;;1.17;78.12;101948.47;4883430;29;20202;-68
2021/12/20 08:58:35;;;;;;;7.78;3.50;;;1.20;99.90;;;1.08;78.02;101949.16;4884274;29;20206;-69
2021/12/20 09:01:04;;;;;;;5.88;2.35;;;1.20;99.90;;;1.25;78.03;101946.09;4884216;29;20188;-67
2021/12/20 09:03:38;;;;;;;8.32;2.85;;;1.30;99.90;;;1.29;77.80;101942.22;4883962;29;20225;-69
2021/12/20 09:06:08;;;;;;;3.75;2.88;;;1.40;99.90;;;1.23;77.66;101953.34;4876574;29;20186;-69
2021/12/20 09:08:38;;;;;;;6.00;3.80;;;1.30;99.90;;;1.34;77.41;101949.88;4899166;29;20259;-69
2021/12/20 09:11:07;;;;;;;5.88;2.20;;;1.40;99.90;;;1.37;77.48;101959.44;4889324;29;20194;-70
2021/12/20 09:13:36;;;;;;;8.63;3.28;;;1.40;99.90;;;1.46;77.29;101956.06;4885418;29;20294;-68
2021/12/20 09:16:05;;;;;;;5.18;2.30;;;1.50;99.90;;;1.58;76.63;101960.47;4887182;29;20203;-67
2021/12/20 09:18:34;;;;;;;8.00;3.47;;;1.60;99.90;;;1.60;77.13;101961.19;4884646;29;20588;-68
2021/12/20 09:21:02;;;;;;;12.52;3.35;;;1.60;99.90;;;1.58;76.51;101964.00;4882861;29;20533;-67
2021/12/20 09:23:32;;;;;;;13.15;4.00;;;1.70;99.90;;;1.67;76.89;101967.78;4880823;29;20218;-66
2021/12/20 09:26:00;;;;;;;8.93;2.00;;;1.70;99.90;;;1.69;76.19;101965.84;4866762;29;20184;-66
2021/12/20 09:28:29;;;;;;;4.75;2.20;;;1.80;99.90;;;1.72;75.89;101971.78;4867368;29;20215;-67
2021/12/20 09:30:59;;;;;;;5.13;3.00;;;1.80;99.90;;;1.66;76.59;101971.41;4871403;29;20191;-68
2021/12/20 09:33:28;;;;;;;4.78;2.30;;;1.80;99.90;;;2.02;75.97;101976.56;4872011;29;20536;-68
2021/12/20 09:35:56;;;;;;;9.57;3.75;;;2.00;99.90;;;1.92;76.14;101972.91;4880851;29;20197;-68
2021/12/20 09:38:25;;;;;;;7.47;4.07;;;2.00;99.90;;;2.06;75.97;101983.34;4905122;29;20258;-69
2021/12/20 09:41:15;;;;;;;11.95;4.35;;;2.10;99.90;;;2.29;75.35;101975.31;4901137;29;20273;-67
2021/12/20 09:43:48;;;;;;;6.30;2.88;;;2.20;99.90;;;2.21;74.60;101983.09;4899260;29;20218;-69
2021/12/20 09:46:21;;;;;;;8.75;3.10;;;2.30;99.90;;;2.13;75.26;101995.22;4877428;29;20274;-68
2021/12/20 09:48:50;;;;;;;7.10;2.85;;;2.20;99.90;;;2.25;75.14;101979.22;4884488;29;20183;-69
2021/12/20 09:51:19;;;;;;;5.60;2.58;;;2.30;99.90;;;2.39;74.78;101992.31;4884020;29;20243;-69
2021/12/20 09:53:48;;;;;;;5.95;3.53;;;2.40;99.90;;;2.34;74.86;101995.34;4882793;29;20195;-69
2021/12/20 09:56:19;;;;;;;8.45;4.22;;;2.40;99.90;;;2.50;74.33;102000.31;4883114;29;20234;-69
2021/12/20 09:58:50;;;;;;;7.22;3.78;;;2.50;99.90;;;2.58;74.56;101998.72;4883610;29;20197;-68
2021/12/20 10:01:23;;;;;;;5.38;2.20;;;2.60;99.90;;;2.55;74.01;101998.13;4883056;29;20246;-69
2021/12/20 10:03:53;;;;;;;6.35;2.65;;;2.60;99.90;;;2.39;74.08;101997.66;4886055;29;20225;-68
2021/12/20 10:06:22;;;;;;;10.25;3.47;;;2.50;99.90;;;2.45;73.89;101991.84;4886957;29;20187;-68
2021/12/20 10:08:53;;;;;;;7.78;2.22;;;2.60;99.90;;;2.58;74.01;101997.88;4887783;29;20210;-71
2021/12/20 10:11:27;;;;;;;4.20;3.00;;;2.60;99.90;;;2.72;74.20;102005.63;4887991;29;20191;-69
2021/12/20 10:14:05;;;;;;;5.70;2.70;;;2.70;99.90;;;2.81;73.61;102010.22;4887147;29;20202;-66
2021/12/20 10:16:39;;;;;;;9.27;2.42;;;2.80;99.90;;;2.66;73.26;102003.47;4888371;29;20217;-68
2021/12/20 10:19:29;;;;;;;4.80;2.78;;;2.80;99.90;;;2.70;73.61;102007.59;4888064;29;20183;-66
2021/12/20 10:22:01;;;;;;;4.55;2.63;;;2.80;99.90;;;2.67;73.39;102006.97;4887672;29;20210;-68
2021/12/20 10:24:33;;;;;;;7.80;2.75;;;2.80;99.90;;;2.85;73.03;102001.00;4889003;29;20210;-69
2021/12/20 10:27:02;;;;;;;12.90;3.05;;;2.90;99.90;;;2.79;73.05;102009.50;4895925;29;20235;-70
2021/12/20 10:29:42;;;;;;;9.13;3.17;;;2.90;99.90;;;2.78;73.14;102005.13;4898935;29;20254;-70
2021/12/20 10:32:12;;;;;;;8.00;2.45;;;2.90;99.90;;;2.83;72.72;102010.09;4893851;29;20314;-70
2021/12/20 10:34:41;;;;;;;5.22;2.47;;;2.90;99.90;;;2.76;73.43;102009.75;4886153;29;20627;-66
2021/12/20 10:37:09;;;;;;;7.43;3.58;;;2.80;99.90;;;2.65;73.50;102003.59;4887071;29;20258;-69
2021/12/20 10:39:45;;;;;;;10.10;2.38;;;2.80;99.90;;;2.92;73.31;102017.38;4891326;29;20191;-68
2021/12/20 10:42:20;;;;;;;7.68;2.70;;;2.90;99.90;;;3.00;72.54;102015.75;4904324;29;20272;-69
2021/12/20 10:45:09;;;;;;;8.07;4.07;;;3.00;99.90;;;3.13;72.74;102014.75;4893488;29;20213;-69